Cavern City Air Terminal
KCNM : now visible

Airfield :











YOU CAN JOIN US ON...

 
LOGIN :

Register | Disclaimer

   EN    FR    IT 

 









Legend :    VFR   Marginal VFR   IFR   Intensive IFR   Very Intensive IFR
Visi :
Ceiling :
>= 8 km
>= 3000ft
5 to 8 km
1000 to 3000 ft
1500m to 5 km
500 to 1000 ft
800 to 1500m
200 to 500 ft
< 800m
< 200 ft
Symbols :   Thunderstorms  Fog  Heavy snow  Heavy precipitations  Wind > 20 kt






- Airport Elevation : 3295 ft
- IATA code : CNM


KCNM - Cavern City Air Terminal

CURRENT METAR :
  • 142153Z AUTO 27023G28KT 10SM CLR 23/00 A2969 RMK AO2 PK WND 25035/2123 SLP018 T02330000 $

EXPIRED METARs :
  • 142053Z AUTO 26025G32KT 10SM CLR 24/00 A2969 RMK AO2 PK WND 25035/2022 SLP019 T02390000 56031 $
  • 141953Z AUTO 25026G32KT 10SM CLR 23/01 A2972 RMK AO2 PK WND 25033/1902 SLP028 T02330011 $

TAF KCNM
Valid from the 14 at 18:00 until the 15 at 18:00 UTC


141735Z 1418/1518 25020G30KT P6SM FEW300
FM150100 24015G25KT P6SM FEW300
FM150600 22011KT P6SM SCT250
TEMPO 1506/1510 25025G35KT
FM151600 25020G30KT P6SM SCT250



MET'MAP, your aeronautical weather chart ! - Copyright ORBIFLY December 2007 - Disclaimer

ORBIFLY MET'MAP TEAM :

Programming & Development : Alexandra Zaïnal
Concept & original design : Baudouin d'Aumeries
Assistance for programming : Marc-Olivier Méhu
Technical & hardware support : Manuel Goepfert

Contact : metmap@orbifly.com




SOURCES & CREDITS :

   NOAA       Earth
Advisory